Time;durP1;ratioP1;P1;durP2;ratioP2;P2;SDS_P1;SDS_P2;PMS_P1;PMS_P2;Temp;Humidity;BMP_temperature;BMP_pressure;BME280_temperature;BME280_humidity;BME280_pressure;Samples;Min_cycle;Max_cycle;Signal;HPM_P1;HPM_P2
2023/10/26 00:00:02;;;;;;;12.30;7.37;;;;;;;11.22;100.00;99512.50;6244519;28;20259;-70
2023/10/26 00:03:33;;;;;;;7.33;6.57;;;;;;;11.14;100.00;99512.53;6243910;28;20255;-69
2023/10/26 00:06:54;;;;;;;6.73;6.00;;;;;;;11.19;100.00;99507.47;6243243;28;20232;-70
2023/10/26 00:10:17;;;;;;;7.57;6.87;;;;;;;11.17;100.00;99514.88;6250978;28;20236;-69
2023/10/26 00:13:38;;;;;;;7.97;6.23;;;;;;;11.17;100.00;99511.34;6244476;28;20233;-70
2023/10/26 00:16:59;;;;;;;12.00;6.90;;;;;;;11.17;100.00;99514.88;6249094;28;20231;-70
2023/10/26 00:20:20;;;;;;;8.17;7.40;;;;;;;11.05;100.00;99508.19;6254235;28;20231;-70
2023/10/26 00:23:41;;;;;;;7.70;6.80;;;;;;;11.10;100.00;99511.19;6245375;28;20597;-70
2023/10/26 00:27:04;;;;;;;7.87;6.97;;;;;;;11.07;100.00;99508.00;6251142;28;20250;-70
2023/10/26 00:30:25;;;;;;;6.87;6.20;;;;;;;11.05;100.00;99510.88;6248022;28;20227;-70
2023/10/26 00:33:46;;;;;;;6.20;5.60;;;;;;;11.07;100.00;99518.78;6241113;28;20591;-70
2023/10/26 00:37:07;;;;;;;8.40;7.10;;;;;;;10.97;100.00;99513.56;6249993;28;20255;-70
2023/10/26 00:40:28;;;;;;;10.63;6.30;;;;;;;10.91;100.00;99516.16;6244376;28;20251;-69
2023/10/26 00:43:51;;;;;;;6.33;5.70;;;;;;;10.91;100.00;99511.56;6250605;28;20215;-70
2023/10/26 00:47:12;;;;;;;8.00;6.03;;;;;;;10.88;100.00;99506.53;6246610;28;20611;-70
2023/10/26 00:50:34;;;;;;;6.17;5.67;;;;;;;10.87;100.00;99512.94;6246143;28;20602;-70
2023/10/26 00:53:55;;;;;;;6.17;5.67;;;;;;;10.87;100.00;99504.84;6240934;28;20239;-70
2023/10/26 00:57:18;;;;;;;6.80;6.13;;;;;;;10.87;100.00;99502.16;6233341;28;20852;-70
2023/10/26 01:00:41;;;;;;;6.00;5.47;;;;;;;10.81;100.00;99502.84;6244894;28;20339;-70
2023/10/26 01:04:03;;;;;;;5.97;5.47;;;;;;;10.82;100.00;99503.69;6240239;28;20243;-70
2023/10/26 01:07:23;;;;;;;6.67;5.30;;;;;;;10.81;100.00;99502.84;6249384;28;20633;-70
2023/10/26 01:10:44;;;;;;;7.93;7.17;;;;;;;10.81;100.00;99499.28;6249063;28;20243;-70
2023/10/26 01:14:06;;;;;;;6.80;6.10;;;;;;;10.79;100.00;99498.63;6244829;28;20511;-69
2023/10/26 01:17:28;;;;;;;6.63;6.03;;;;;;;10.77;100.00;99500.66;6247414;28;20315;-70
2023/10/26 01:20:49;;;;;;;9.43;7.87;;;;;;;10.69;100.00;99503.34;6247084;28;20810;-69
2023/10/26 01:24:11;;;;;;;6.63;5.93;;;;;;;10.74;100.00;99503.69;6242272;28;20216;-70
2023/10/26 01:27:32;;;;;;;8.17;6.93;;;;;;;10.73;100.00;99499.31;6246536;28;20263;-70
2023/10/26 01:30:53;;;;;;;8.37;7.07;;;;;;;10.74;100.00;99498.31;6247176;28;20255;-71
2023/10/26 01:34:14;;;;;;;6.47;5.83;;;;;;;10.76;100.00;99499.84;6245465;28;20322;-70
2023/10/26 01:37:35;;;;;;;10.03;6.47;;;;;;;10.82;100.00;99506.38;6242773;28;20231;-70
2023/10/26 01:40:57;;;;;;;9.33;7.77;;;;;;;10.75;100.00;99503.53;6249396;28;20263;-69
2023/10/26 01:44:18;;;;;;;7.87;6.63;;;;;;;10.80;100.00;99503.88;6248722;28;20227;-70
2023/10/26 01:47:39;;;;;;;8.73;7.80;;;;;;;10.82;100.00;99495.59;6242474;28;20227;-69
2023/10/26 01:51:00;;;;;;;9.40;7.90;;;;;;;10.79;100.00;99488.69;6246830;28;20513;-69
2023/10/26 01:54:21;;;;;;;7.17;6.27;;;;;;;10.87;100.00;99491.38;6243031;28;20239;-70
2023/10/26 01:57:43;;;;;;;7.73;6.70;;;;;;;10.83;100.00;99497.25;6245492;28;20247;-70
2023/10/26 02:01:05;;;;;;;8.63;7.80;;;;;;;10.92;100.00;99497.09;6239716;28;20223;-70
2023/10/26 02:04:26;;;;;;;8.03;7.23;;;;;;;10.94;100.00;99492.38;6246653;28;20232;-69
2023/10/26 02:07:47;;;;;;;14.43;6.70;;;;;;;10.94;100.00;99481.59;6241234;28;20240;-70
2023/10/26 02:11:08;;;;;;;12.20;6.60;;;;;;;10.92;100.00;99480.06;6250326;28;20533;-69
2023/10/26 02:14:30;;;;;;;7.93;6.23;;;;;;;10.92;100.00;99474.69;6248177;28;20256;-69
2023/10/26 02:17:51;;;;;;;8.87;7.77;;;;;;;10.88;100.00;99481.44;6245821;28;20235;-69
2023/10/26 02:21:12;;;;;;;7.97;7.07;;;;;;;10.89;100.00;99488.50;6253555;28;20228;-69
2023/10/26 02:24:34;;;;;;;12.60;8.27;;;;;;;10.87;100.00;99488.66;6253814;28;20228;-69
2023/10/26 02:27:55;;;;;;;9.00;8.10;;;;;;;10.86;100.00;99488.84;6248959;28;20629;-70
2023/10/26 02:31:18;;;;;;;8.63;7.37;;;;;;;10.90;100.00;99485.63;6261357;28;20331;-69
2023/10/26 02:34:41;;;;;;;7.87;7.17;;;;;;;10.88;100.00;99486.81;6242719;28;20232;-69
2023/10/26 02:38:02;;;;;;;12.43;7.70;;;;;;;10.85;100.00;99496.09;6247779;28;20232;-69
2023/10/26 02:41:23;;;;;;;8.13;7.33;;;;;;;10.86;100.00;99496.94;6247581;28;20224;-70
2023/10/26 02:44:44;;;;;;;10.63;7.77;;;;;;;10.86;100.00;99496.94;6250297;28;20239;-69
2023/10/26 02:48:06;;;;;;;8.67;7.87;;;;;;;10.83;100.00;99492.72;6250108;28;20231;-69
2023/10/26 02:51:27;;;;;;;9.07;7.67;;;;;;;10.83;100.00;99492.72;6248010;28;20232;-69
2023/10/26 02:54:49;;;;;;;9.70;8.70;;;;;;;10.75;100.00;99499.97;6253070;28;20323;-70
2023/10/26 02:58:10;;;;;;;9.17;8.03;;;;;;;10.80;100.00;99503.88;6247985;28;20232;-69
2023/10/26 03:01:33;;;;;;;8.57;7.67;;;;;;;10.80;100.00;99501.16;6248753;28;20286;-69
2023/10/26 03:04:55;;;;;;;10.33;7.97;;;;;;;10.84;100.00;99490.88;6252265;28;20224;-69
2023/10/26 03:08:17;;;;;;;8.43;7.63;;;;;;;10.88;100.00;99492.22;6248450;28;20391;-70
2023/10/26 03:11:39;;;;;;;7.50;6.80;;;;;;;10.89;100.00;99494.72;6255278;28;20227;-70
2023/10/26 03:15:00;;;;;;;9.73;8.73;;;;;;;10.87;100.00;99496.75;6245586;28;20237;-69
2023/10/26 03:18:21;;;;;;;9.37;7.97;;;;;;;10.91;100.00;99498.09;6263202;28;21232;-70
2023/10/26 03:21:43;;;;;;;10.23;8.60;;;;;;;10.94;100.00;99491.53;6249574;28;20227;-70
2023/10/26 03:25:05;;;;;;;8.47;7.60;;;;;;;10.92;100.00;99485.47;6244360;28;20231;-69
2023/10/26 03:28:26;;;;;;;9.77;8.83;;;;;;;10.91;100.00;99492.69;6248215;28;20232;-71
2023/10/26 03:31:47;;;;;;;9.57;8.50;;;;;;;10.86;100.00;99500.47;6251905;28;20489;-70
2023/10/26 03:35:09;;;;;;;8.63;7.73;;;;;;;10.89;100.00;99500.13;6248055;28;20231;-70
2023/10/26 03:38:32;;;;;;;9.27;8.37;;;;;;;10.91;100.00;99499.97;6246698;28;20228;-70
2023/10/26 03:41:53;;;;;;;9.67;8.67;;;;;;;10.84;100.00;99504.34;6251452;28;20577;-70
2023/10/26 03:45:14;;;;;;;10.10;9.10;;;;;;;10.82;100.00;99495.59;6254862;28;20239;-70
2023/10/26 03:48:36;;;;;;;9.10;7.57;;;;;;;10.83;100.00;99497.25;6252821;28;20237;-70
2023/10/26 03:51:58;;;;;;;11.00;10.00;;;;;;;10.85;100.00;99504.16;6245013;28;20302;-71
2023/10/26 03:55:21;;;;;;;11.90;10.77;;;;;;;10.87;100.00;99504.00;6252010;28;20661;-71
2023/10/26 03:58:42;;;;;;;10.40;9.40;;;;;;;10.80;100.00;99511.94;6246138;28;20232;-71
2023/10/26 04:02:03;;;;;;;16.37;14.77;;;;;;;10.87;100.00;99515.63;6243863;28;20232;-70
2023/10/26 04:05:24;;;;;;;12.57;9.83;;;;;;;10.90;100.00;99517.16;6249609;28;20220;-71
2023/10/26 04:08:45;;;;;;;9.50;8.60;;;;;;;10.87;100.00;99512.94;6253427;28;20231;-71
2023/10/26 04:12:07;;;;;;;8.90;8.07;;;;;;;10.89;100.00;99518.16;6249464;28;20247;-71
2023/10/26 04:15:29;;;;;;;8.90;7.67;;;;;;;10.86;100.00;99513.97;6247866;28;20224;-71
2023/10/26 04:18:50;;;;;;;9.97;7.93;;;;;;;10.89;100.00;99518.16;6248559;28;20259;-71
2023/10/26 04:22:11;;;;;;;10.53;9.50;;;;;;;10.87;100.00;99523.72;6248430;28;20256;-70
2023/10/26 04:25:32;;;;;;;8.83;7.80;;;;;;;10.84;100.00;99520.53;6248369;28;20240;-70
2023/10/26 04:28:55;;;;;;;8.43;7.73;;;;;;;10.85;100.00;99514.09;6246225;28;20498;-69
2023/10/26 04:32:15;;;;;;;11.70;9.07;;;;;;;10.89;100.00;99510.91;6239101;28;20314;-70
2023/10/26 04:35:41;;;;;;;11.97;10.33;;;;;;;10.84;100.00;99510.59;6247266;28;20235;-70
2023/10/26 04:39:04;;;;;;;12.07;10.97;;;;;;;10.83;100.00;99498.09;6247549;28;20224;-70
2023/10/26 04:42:24;;;;;;;12.33;11.13;;;;;;;10.78;100.00;99499.66;6243795;28;20232;-70
2023/10/26 04:45:47;;;;;;;10.77;9.57;;;;;;;10.76;100.00;99509.75;6242667;28;20236;-69
2023/10/26 04:49:08;;;;;;;10.60;9.47;;;;;;;10.72;100.00;99509.25;6248213;28;20227;-70
2023/10/26 04:52:29;;;;;;;11.87;10.67;;;;;;;10.69;100.00;99509.59;6248517;28;20223;-70
2023/10/26 04:55:50;;;;;;;11.60;10.40;;;;;;;10.67;100.00;99511.63;6249691;28;20231;-70
2023/10/26 04:59:11;;;;;;;13.30;12.00;;;;;;;10.76;100.00;99507.91;6251645;28;20231;-70
2023/10/26 05:02:33;;;;;;;13.13;11.77;;;;;;;10.74;100.00;99501.00;6243703;28;20283;-69
2023/10/26 05:05:54;;;;;;;10.43;9.30;;;;;;;10.70;100.00;99503.19;6245049;28;20255;-69
2023/10/26 05:09:15;;;;;;;14.20;12.03;;;;;;;10.74;100.00;99512.63;6247688;28;20239;-70
2023/10/26 05:12:36;;;;;;;12.57;11.40;;;;;;;10.72;100.00;99506.53;6247894;28;20224;-70
2023/10/26 05:15:57;;;;;;;13.17;11.83;;;;;;;10.74;100.00;99504.56;6244064;28;20579;-70
2023/10/26 05:19:19;;;;;;;14.30;10.37;;;;;;;10.78;100.00;99505.03;6245599;28;20240;-69
2023/10/26 05:22:40;;;;;;;14.90;11.63;;;;;;;10.77;100.00;99506.88;6247301;28;20620;-71
2023/10/26 05:26:01;;;;;;;13.07;11.77;;;;;;;10.76;100.00;99507.06;6248801;28;20228;-69
2023/10/26 05:29:22;;;;;;;17.23;13.33;;;;;;;10.75;100.00;99508.06;6247433;28;20240;-68
2023/10/26 05:32:43;;;;;;;13.13;11.60;;;;;;;10.70;100.00;99505.88;6247199;28;20236;-69
2023/10/26 05:36:06;;;;;;;13.23;11.43;;;;;;;10.74;100.00;99506.41;6250925;28;20355;-68
2023/10/26 05:39:27;;;;;;;13.97;11.97;;;;;;;10.75;100.00;99506.22;6239289;28;20305;-68
2023/10/26 05:42:48;;;;;;;13.73;11.63;;;;;;;10.76;100.00;99505.22;6246972;28;20247;-68
2023/10/26 05:46:09;;;;;;;12.30;10.90;;;;;;;10.77;100.00;99508.72;6249586;28;20542;-68
2023/10/26 05:49:30;;;;;;;12.47;11.37;;;;;;;10.80;100.00;99511.09;6249095;28;20231;-68
2023/10/26 05:52:52;;;;;;;18.40;16.53;;;;;;;10.87;100.00;99507.53;6249993;28;20438;-68
2023/10/26 05:56:13;;;;;;;13.67;10.80;;;;;;;11.12;100.00;99511.00;6232478;28;20241;-69
2023/10/26 05:59:34;;;;;;;11.93;9.87;;;;;;;10.94;100.00;99508.53;6251189;28;20265;-72
2023/10/26 06:02:55;;;;;;;12.03;10.73;;;;;;;10.92;100.00;99504.34;6248340;28;20232;-68
2023/10/26 06:06:16;;;;;;;14.83;12.97;;;;;;;10.88;100.00;99498.44;6256086;28;20235;-68
2023/10/26 06:09:38;;;;;;;12.87;10.50;;;;;;;10.91;100.00;99503.47;6242097;28;20239;-68
2023/10/26 06:12:59;;;;;;;13.07;11.37;;;;;;;10.97;100.00;99508.19;6256228;28;20228;-70
2023/10/26 06:16:20;;;;;;;11.10;9.27;;;;;;;11.00;100.00;99504.31;6256750;28;20231;-69
2023/10/26 06:19:41;;;;;;;15.33;11.83;;;;;;;10.93;100.00;99506.84;6250735;28;20235;-70
2023/10/26 06:23:03;;;;;;;10.93;9.83;;;;;;;10.93;100.00;99506.84;6242760;28;20225;-70
2023/10/26 06:26:25;;;;;;;12.27;9.90;;;;;;;10.96;100.00;99511.06;6251104;28;20231;-70
2023/10/26 06:29:46;;;;;;;11.77;10.23;;;;;;;10.90;100.00;99509.91;6250957;28;22211;-70
2023/10/26 06:33:07;;;;;;;11.90;10.70;;;;;;;10.94;100.00;99505.84;6258299;28;20224;-68
2023/10/26 06:36:27;;;;;;;11.67;10.20;;;;;;;10.97;100.00;99516.28;6258103;28;20236;-69
2023/10/26 06:39:48;;;;;;;11.27;10.17;;;;;;;10.95;100.00;99522.88;6252259;28;20516;-70
2023/10/26 06:43:11;;;;;;;10.07;8.90;;;;;;;11.07;100.00;99521.50;6253189;28;20613;-70
2023/10/26 06:46:32;;;;;;;9.83;8.43;;;;;;;11.07;100.00;99524.19;6245325;28;20231;-70
2023/10/26 06:49:53;;;;;;;12.93;11.33;;;;;;;11.07;100.00;99526.88;6253796;28;20248;-70
2023/10/26 06:53:15;;;;;;;10.70;9.70;;;;;;;11.08;100.00;99525.84;6251194;28;20228;-68
2023/10/26 06:56:37;;;;;;;12.17;10.50;;;;;;;11.09;100.00;99528.41;6250041;28;20522;-69
2023/10/26 07:00:00;;;;;;;11.57;10.17;;;;;;;11.19;100.00;99530.88;6254286;28;20235;-69
2023/10/26 07:03:21;;;;;;;12.27;10.27;;;;;;;11.18;100.00;99529.22;6253151;28;20228;-69
2023/10/26 07:06:42;;;;;;;13.40;11.40;;;;;;;11.16;100.00;99523.97;6256977;28;20251;-69
2023/10/26 07:10:03;;;;;;;14.03;10.57;;;;;;;11.17;100.00;99520.28;6257255;28;20251;-69
2023/10/26 07:13:24;;;;;;;10.80;9.67;;;;;;;11.26;100.00;99530.00;6257146;28;20350;-69
2023/10/26 07:16:46;;;;;;;11.87;10.07;;;;;;;11.30;100.00;99535.06;6251264;28;20232;-70
2023/10/26 07:20:08;;;;;;;10.93;9.60;;;;;;;11.40;100.00;99533.00;6255629;28;20240;-70
2023/10/26 07:23:29;;;;;;;13.67;10.10;;;;;;;11.40;100.00;99536.56;6249838;28;20310;-69
2023/10/26 07:26:50;;;;;;;11.07;9.83;;;;;;;11.41;100.00;99542.81;6248444;28;20232;-69
2023/10/26 07:30:12;;;;;;;10.90;9.80;;;;;;;11.43;100.00;99536.19;6253254;28;20228;-70
2023/10/26 07:33:34;;;;;;;13.17;10.10;;;;;;;11.51;100.00;99540.72;6247349;28;20232;-69
2023/10/26 07:36:55;;;;;;;10.77;9.10;;;;;;;11.53;100.00;99549.50;6253076;28;20232;-69
2023/10/26 07:40:16;;;;;;;12.00;10.10;;;;;;;11.56;100.00;99546.44;6250921;28;20244;-69
2023/10/26 07:43:36;;;;;;;12.13;9.13;;;;;;;11.67;100.00;99551.50;6252465;28;20223;-71
2023/10/26 07:46:58;;;;;;;13.53;10.93;;;;;;;11.64;100.00;99543.72;6246024;28;20232;-69
2023/10/26 07:50:22;;;;;;;12.30;9.20;;;;;;;11.63;100.00;99545.56;6242157;28;20236;-69
2023/10/26 07:53:42;;;;;;;10.50;8.53;;;;;;;11.54;100.00;99543.91;6249749;28;20487;-68
2023/10/26 07:57:04;;;;;;;11.00;9.70;;;;;;;11.57;100.00;99550.81;6247775;28;20314;-68
2023/10/26 08:00:25;;;;;;;11.90;9.50;;;;;;;11.71;100.00;99559.06;6247518;28;20247;-70
2023/10/26 08:03:46;;;;;;;12.43;10.60;;;;;;;11.82;100.00;99549.72;6253731;28;20228;-69
2023/10/26 08:07:09;;;;;;;11.13;10.03;;;;;;;11.89;100.00;99556.13;6252836;28;20314;-71
2023/10/26 08:10:35;;;;;;;18.43;12.70;;;;;;;11.88;100.00;99562.53;6247805;28;20318;-69
2023/10/26 08:13:56;;;;;;;9.87;8.87;;;;;;;11.80;100.00;99566.13;6247920;28;20224;-68
2023/10/26 08:17:17;;;;;;;8.70;7.10;;;;;;;11.69;100.00;99565.66;6252375;28;20265;-68
2023/10/26 08:20:38;;;;;;;8.40;7.63;;;;;;;11.75;100.00;99562.25;6251271;28;20495;-70
2023/10/26 08:24:00;;;;;;;9.00;8.17;;;;;;;11.82;100.00;99561.38;6244498;28;20251;-69
2023/10/26 08:27:23;;;;;;;8.67;7.63;;;;;;;12.01;100.00;99552.81;6252629;28;20247;-70
2023/10/26 08:30:44;;;;;;;8.57;7.13;;;;;;;12.02;100.00;99565.31;6247365;28;20224;-70
2023/10/26 08:34:05;;;;;;;6.47;5.87;;;;;;;12.10;100.00;99571.69;6251956;28;20311;-69
2023/10/26 08:37:27;;;;;;;6.40;5.67;;;;;;;12.08;100.00;99571.84;6244548;28;20231;-69
2023/10/26 08:40:51;;;;;;;6.47;5.87;;;;;;;12.09;100.00;99580.81;6250222;28;20252;-71
2023/10/26 08:44:12;;;;;;;6.77;5.23;;;;;;;12.02;100.00;99575.28;6255696;28;20216;-70
2023/10/26 08:47:35;;;;;;;7.07;6.07;;;;;;;11.96;100.00;99579.53;6241279;28;20421;-69
2023/10/26 08:50:56;;;;;;;4.93;4.47;;;;;;;12.03;100.00;99580.53;6253403;28;20580;-70
2023/10/26 08:54:17;;;;;;;6.20;5.43;;;;;;;12.03;100.00;99583.22;6254972;28;20267;-69
2023/10/26 08:57:48;;;;;;;6.17;5.57;;;;;;;12.07;100.00;99582.84;6249115;28;20231;-68
2023/10/26 09:01:08;;;;;;;7.13;6.43;;;;;;;12.19;100.00;99582.28;6252188;28;20318;-69
2023/10/26 09:04:30;;;;;;;6.10;5.17;;;;;;;12.29;100.00;99582.03;6244848;28;20231;-70
2023/10/26 09:07:52;;;;;;;5.13;4.63;;;;;;;12.41;100.00;99573.31;6247575;28;20323;-69
2023/10/26 09:11:22;;;;;;;5.03;4.53;;;;;;;12.52;100.00;99581.03;6248730;28;20251;-70
2023/10/26 09:14:57;;;;;;;4.70;4.20;;;;;;;12.91;100.00;99571.94;6247927;28;20227;-70
2023/10/26 09:18:18;;;;;;;5.67;4.27;;;;;;;13.06;100.00;99572.84;6251124;28;20244;-68
2023/10/26 09:21:52;;;;;;;5.30;4.80;;;;;;;13.09;100.00;99581.41;6245727;28;20232;-68
2023/10/26 09:25:14;;;;;;;6.33;5.73;;;;;;;13.44;100.00;99578.00;6247666;28;20240;-70
2023/10/26 09:28:48;;;;;;;4.30;3.90;;;;;;;13.14;100.00;99578.16;6249492;28;20244;-71
2023/10/26 09:32:11;;;;;;;4.57;4.07;;;;;;;13.16;100.00;99576.94;6253980;28;20224;-71
2023/10/26 09:35:33;;;;;;;4.57;4.17;;;;;;;13.01;100.00;99576.06;6254251;28;20500;-71
2023/10/26 09:38:54;;;;;;;5.77;5.27;;;;;;;13.01;100.00;99567.09;6251923;28;20240;-71
2023/10/26 09:42:15;;;;;;;7.57;6.83;;;;;;;12.84;100.00;99567.25;6251743;28;20597;-71
2023/10/26 09:45:36;;;;;;;3.97;3.57;;;;;;;12.84;100.00;99572.66;6253710;28;20227;-71
2023/10/26 09:48:58;;;;;;;4.67;4.27;;;;;;;13.33;100.00;99569.50;6246426;28;20236;-71
2023/10/26 09:52:19;;;;;;;5.60;5.03;;;;;;;13.48;100.00;99564.91;6251864;28;20232;-70
2023/10/26 09:55:43;;;;;;;6.27;4.80;;;;;;;13.24;100.00;99574.16;6254534;28;20240;-70
2023/10/26 09:59:04;;;;;;;3.83;3.23;;;;;;;13.22;100.00;99573.50;6259185;28;20236;-70
2023/10/26 10:02:25;;;;;;;3.80;3.40;;;;;;;13.30;100.00;99576.13;6253683;28;20657;-70
2023/10/26 10:05:49;;;;;;;5.77;4.17;;;;;;;13.50;100.00;99576.41;6259049;28;20224;-70
2023/10/26 10:09:10;;;;;;;4.33;3.93;;;;;;;13.62;100.00;99577.63;6249413;28;20224;-70
2023/10/26 10:12:32;;;;;;;3.53;3.23;;;;;;;13.45;100.00;99577.00;6253889;28;20308;-71
2023/10/26 10:15:53;;;;;;;4.90;3.83;;;;;;;13.38;100.00;99575.19;6250347;28;20231;-71
2023/10/26 10:19:18;;;;;;;3.20;2.30;;;;;;;13.43;100.00;99572.78;6250636;28;20256;-71
2023/10/26 10:22:52;;;;;;;4.13;2.90;;;;;;;13.38;100.00;99575.19;6256423;28;20228;-70
2023/10/26 10:26:13;;;;;;;3.60;3.30;;;;;;;13.36;100.00;99572.69;6249872;28;20224;-70
2023/10/26 10:29:34;;;;;;;2.47;2.23;;;;;;;13.35;100.00;99573.69;6260402;28;20761;-70
2023/10/26 10:32:57;;;;;;;3.43;2.10;;;;;;;13.29;100.00;99579.00;6258021;28;20319;-70
2023/10/26 10:36:19;;;;;;;3.47;3.17;;;;;;;13.32;100.00;99581.34;6253793;28;20409;-69
2023/10/26 10:40:12;;;;;;;2.83;2.63;;;;;;;13.37;100.00;99581.66;6255917;28;20240;-69
2023/10/26 10:43:34;;;;;;;2.40;2.13;;;;;;;13.57;100.00;99572.78;6248461;28;20240;-70
2023/10/26 10:46:55;;;;;;;2.53;2.00;;;;;;;13.84;100.00;99579.38;6264930;28;20236;-71
2023/10/26 10:50:17;;;;;;;2.23;2.10;;;;;;;13.75;100.00;99575.09;6239269;28;20227;-71
2023/10/26 10:53:38;;;;;;;2.37;2.17;;;;;;;13.57;100.00;99571.94;6258915;28;20227;-70
2023/10/26 10:57:05;;;;;;;3.80;3.50;;;;;;;13.71;100.00;99573.78;6261044;28;20532;-70
2023/10/26 11:00:27;;;;;;;4.13;3.00;;;;;;;13.65;100.00;99569.13;6261469;28;20717;-71
2023/10/26 11:03:48;;;;;;;3.10;2.83;;;;;;;13.37;100.00;99581.66;6248932;28;20224;-70
2023/10/26 11:07:09;;;;;;;3.33;2.10;;;;;;;13.18;100.00;99571.34;6257415;28;20232;-70
2023/10/26 11:10:30;;;;;;;3.23;3.03;;;;;;;13.10;100.00;99572.25;6249365;28;20232;-70
2023/10/26 11:14:05;;;;;;;2.77;2.53;;;;;;;13.07;100.00;99574.50;6247097;28;20236;-70
2023/10/26 11:17:28;;;;;;;3.17;2.47;;;;;;;13.39;100.00;99568.78;6248344;28;20219;-69
2023/10/26 11:20:49;;;;;;;2.83;2.63;;;;;;;13.40;100.00;99570.44;6249424;28;20231;-69
2023/10/26 11:24:10;;;;;;;2.33;2.00;;;;;;;13.35;100.00;99565.56;6253049;28;20223;-68
2023/10/26 11:27:35;;;;;;;4.63;2.23;;;;;;;13.24;100.00;99562.50;6254869;28;20227;-68
2023/10/26 11:30:59;;;;;;;2.33;1.93;;;;;;;13.04;100.00;99575.72;6254121;28;20228;-68
2023/10/26 11:34:24;;;;;;;2.70;1.87;;;;;;;12.77;100.00;99582.50;6249146;28;20614;-69
2023/10/26 11:37:49;;;;;;;2.80;2.53;;;;;;;12.74;100.00;99580.19;6258361;28;20600;-69
2023/10/26 11:41:10;;;;;;;2.87;2.37;;;;;;;12.68;100.00;99585.47;6252149;28;20243;-68
2023/10/26 11:44:33;;;;;;;4.23;2.63;;;;;;;12.79;100.00;99566.09;6252126;28;20275;-70
2023/10/26 11:47:57;;;;;;;1.90;1.80;;;;;;;13.31;100.00;99571.53;6249864;28;20231;-69
2023/10/26 11:51:17;;;;;;;2.17;1.97;;;;;;;13.86;100.00;99566.50;6246253;28;20479;-67
2023/10/26 11:54:38;;;;;;;2.70;1.87;;;;;;;13.61;100.00;99565.09;6254953;28;20248;-68
2023/10/26 11:57:59;;;;;;;2.60;2.03;;;;;;;13.53;100.00;99568.78;6254746;28;20243;-69
2023/10/26 12:01:21;;;;;;;1.53;1.43;;;;;;;13.31;100.00;99575.09;6252482;28;20244;-70
2023/10/26 12:04:43;;;;;;;3.00;2.70;;;;;;;13.09;100.00;99573.31;6249573;28;20314;-71
2023/10/26 12:08:04;;;;;;;2.53;2.07;;;;;;;13.12;100.00;99564.81;6248187;28;20243;-70
2023/10/26 12:11:25;;;;;;;2.10;1.77;;;;;;;13.07;100.00;99567.22;6253147;28;20256;-69
2023/10/26 12:14:47;;;;;;;3.60;3.30;;;;;;;13.02;100.00;99558.78;6247559;28;20232;-69
2023/10/26 12:18:08;;;;;;;3.97;3.57;;;;;;;12.87;100.00;99560.63;6256094;28;20668;-69
2023/10/26 12:21:30;;;;;;;5.53;2.43;;;;;;;12.78;100.00;99568.00;6248115;28;20224;-69
2023/10/26 12:24:51;;;;;;;2.53;2.33;;;;;;;12.80;100.00;99579.47;6251395;28;20243;-68
2023/10/26 12:28:12;;;;;;;2.10;2.00;;;;;;;12.71;100.00;99566.16;6253002;28;20247;-70
2023/10/26 12:31:33;;;;;;;2.60;2.00;;;;;;;12.66;100.00;99569.41;6243792;28;20235;-69
2023/10/26 12:34:54;;;;;;;1.93;1.70;;;;;;;12.64;100.00;99563.34;6247874;28;20232;-69
2023/10/26 12:38:19;;;;;;;2.40;2.20;;;;;;;12.58;100.00;99574.03;6248152;28;20227;-70
2023/10/26 12:41:40;;;;;;;3.80;2.03;;;;;;;12.74;100.00;99563.97;6246444;28;20232;-69
2023/10/26 12:45:01;;;;;;;2.20;1.93;;;;;;;12.81;100.00;99562.19;6255557;28;20613;-70
2023/10/26 12:48:21;;;;;;;1.50;1.40;;;;;;;12.81;100.00;99558.66;6252848;28;20256;-69
2023/10/26 12:51:42;;;;;;;4.20;2.10;;;;;;;13.03;100.00;99567.75;6251230;28;20243;-70
2023/10/26 12:55:05;;;;;;;1.93;1.83;;;;;;;13.03;100.00;99565.03;6253187;28;20443;-69
2023/10/26 12:58:26;;;;;;;1.87;1.77;;;;;;;12.96;100.00;99570.34;6253309;28;20275;-69
2023/10/26 13:01:47;;;;;;;3.47;1.70;;;;;;;12.79;100.00;99563.41;6248607;28;20326;-70
2023/10/26 13:05:08;;;;;;;1.40;1.20;;;;;;;12.64;100.00;99571.47;6249445;28;20296;-70
2023/10/26 13:08:29;;;;;;;1.70;1.60;;;;;;;12.64;100.00;99571.47;6258258;28;20236;-70
2023/10/26 13:11:51;;;;;;;1.87;1.77;;;;;;;12.61;100.00;99565.59;6253988;28;20232;-69
2023/10/26 13:15:14;;;;;;;5.30;1.73;;;;;;;12.59;100.00;99579.28;6249974;28;20228;-70
2023/10/26 13:18:35;;;;;;;1.53;1.20;;;;;;;12.53;100.00;99580.03;6245258;28;20236;-70
2023/10/26 13:21:56;;;;;;;1.47;1.40;;;;;;;12.56;100.00;99584.19;6250250;28;20259;-69
2023/10/26 13:25:17;;;;;;;2.53;1.50;;;;;;;12.46;100.00;99579.03;6247591;28;20637;-69
2023/10/26 13:28:39;;;;;;;0.97;0.97;;;;;;;12.47;100.00;99588.84;6249265;28;20553;-70
2023/10/26 13:32:00;;;;;;;1.30;1.20;;;;;;;12.49;100.00;99589.50;6251273;28;20235;-69
2023/10/26 13:35:21;;;;;;;1.07;1.07;;;;;;;12.57;100.00;99591.31;6249198;28;20581;-69
2023/10/26 13:38:42;;;;;;;1.90;1.30;;;;;;;12.58;100.00;99588.41;6254820;28;20274;-69
2023/10/26 13:42:03;;;;;;;2.57;1.40;;;;;;;12.63;100.00;99593.28;6249407;28;20247;-70
2023/10/26 13:45:25;;;;;;;1.70;1.17;;;;;;;12.66;100.00;99596.47;6252078;28;20311;-70
2023/10/26 13:48:46;;;;;;;2.50;1.20;;;;;;;12.77;100.00;99590.63;6241845;28;20252;-68
2023/10/26 13:52:08;;;;;;;1.13;1.03;;;;;;;12.75;100.00;99598.09;6245415;28;20232;-71
2023/10/26 13:55:29;;;;;;;1.50;1.40;;;;;;;12.58;100.00;99593.81;6253699;28;20231;-71
2023/10/26 13:58:50;;;;;;;1.67;1.57;;;;;;;12.62;100.00;99595.13;6250763;28;20284;-72
2023/10/26 14:02:12;;;;;;;1.70;1.60;;;;;;;12.67;100.00;99598.16;6243838;28;20617;-71
2023/10/26 14:05:33;;;;;;;14.83;13.40;;;;;;;12.65;100.00;99586.69;6254403;28;20336;-71
2023/10/26 14:08:58;;;;;;;4.20;3.77;;;;;;;12.56;100.00;99593.16;6257584;28;20236;-71
2023/10/26 14:12:18;;;;;;;2.87;2.67;;;;;;;12.59;100.00;99592.81;6253217;28;20223;-71
2023/10/26 14:15:39;;;;;;;2.03;1.30;;;;;;;12.50;100.00;99591.19;6254026;28;20620;-71
2023/10/26 14:19:05;;;;;;;0.93;0.90;;;;;;;12.48;100.00;99595.94;6259809;28;20228;-71
2023/10/26 14:22:26;;;;;;;1.60;1.50;;;;;;;12.51;100.00;99595.59;6257699;28;20240;-72
2023/10/26 14:25:47;;;;;;;2.00;1.30;;;;;;;12.51;100.00;99587.47;6254299;28;20227;-71
2023/10/26 14:29:07;;;;;;;1.23;1.13;;;;;;;12.49;100.00;99588.66;6257245;28;20228;-71
2023/10/26 14:32:28;;;;;;;1.07;0.97;;;;;;;12.42;100.00;99593.94;6258700;28;20231;-72
2023/10/26 14:35:53;;;;;;;2.77;1.20;;;;;;;12.35;100.00;99587.56;6253142;28;20228;-71
2023/10/26 14:39:14;;;;;;;1.40;1.20;;;;;;;12.34;100.00;99585.91;6255678;28;20254;-71
2023/10/26 14:42:35;;;;;;;0.97;0.97;;;;;;;12.28;100.00;99585.75;6261739;28;20231;-71
2023/10/26 14:45:56;;;;;;;1.17;1.07;;;;;;;12.25;100.00;99588.81;6256035;28;20314;-70
2023/10/26 14:49:17;;;;;;;0.73;0.70;;;;;;;12.34;100.00;99583.19;6257183;28;20227;-71
2023/10/26 14:52:39;;;;;;;1.27;1.17;;;;;;;12.36;100.00;99574.91;6254369;28;20229;-71
2023/10/26 14:56:02;;;;;;;1.57;1.10;;;;;;;12.47;100.00;99574.50;6260337;28;20943;-71
2023/10/26 14:59:22;;;;;;;9.03;8.00;;;;;;;12.48;100.00;99571.59;6262708;28;20330;-71
2023/10/26 15:02:43;;;;;;;10.37;9.40;;;;;;;12.48;100.00;99573.44;6252851;28;20228;-72
2023/10/26 15:06:05;;;;;;;6.50;3.70;;;;;;;12.45;100.00;99577.38;6254406;28;20266;-73
2023/10/26 15:09:29;;;;;;;2.33;2.13;;;;;;;12.53;100.00;99576.47;6256331;28;20240;-72
2023/10/26 15:12:50;;;;;;;6.17;1.77;;;;;;;12.60;100.00;99572.03;6257668;28;20220;-72
2023/10/26 15:16:11;;;;;;;1.90;1.30;;;;;;;12.54;100.00;99570.03;6249227;28;20806;-72
2023/10/26 15:19:33;;;;;;;1.10;1.10;;;;;;;12.47;100.00;99569.94;6250089;28;20546;-71
2023/10/26 15:22:54;;;;;;;1.30;1.20;;;;;;;12.64;100.00;99568.75;6254461;28;20224;-76
2023/10/26 15:26:17;;;;;;;3.73;1.53;;;;;;;12.77;100.00;99560.88;6252507;28;20613;-77
2023/10/26 15:29:40;;;;;;;2.70;1.23;;;;;;;12.82;100.00;99554.94;6247097;28;20236;-77
2023/10/26 15:33:03;;;;;;;1.30;1.20;;;;;;;12.90;100.00;99549.44;6248229;28;20618;-76